sensor_id;sensor_type;location;lat;lon;timestamp;P1;durP1;ratioP1;P2;durP2;ratioP2
36555;SDS011;40859;50.560;7.268;2022-07-25T00:00:13;7.25;;;5.68;;
36555;SDS011;40859;50.560;7.268;2022-07-25T00:02:39;18.25;;;6.68;;
36555;SDS011;40859;50.560;7.268;2022-07-25T00:05:06;12.88;;;6.40;;
36555;SDS011;40859;50.560;7.268;2022-07-25T00:07:32;8.70;;;5.72;;
36555;SDS011;40859;50.560;7.268;2022-07-25T00:09:58;8.85;;;5.97;;
36555;SDS011;40859;50.560;7.268;2022-07-25T00:12:24;8.43;;;6.53;;
36555;SDS011;40859;50.560;7.268;2022-07-25T00:14:50;11.95;;;6.57;;
36555;SDS011;40859;50.560;7.268;2022-07-25T00:17:16;8.55;;;6.47;;
36555;SDS011;40859;50.560;7.268;2022-07-25T00:19:42;7.62;;;6.25;;
36555;SDS011;40859;50.560;7.268;2022-07-25T00:22:08;10.18;;;6.80;;
36555;SDS011;40859;50.560;7.268;2022-07-25T00:24:34;10.07;;;7.10;;
36555;SDS011;40859;50.560;7.268;2022-07-25T00:27:00;8.55;;;6.05;;
36555;SDS011;40859;50.560;7.268;2022-07-25T00:29:27;10.98;;;6.68;;
36555;SDS011;40859;50.560;7.268;2022-07-25T00:31:52;9.82;;;6.45;;
36555;SDS011;40859;50.560;7.268;2022-07-25T00:34:19;10.77;;;6.55;;
36555;SDS011;40859;50.560;7.268;2022-07-25T00:36:45;9.90;;;6.68;;
36555;SDS011;40859;50.560;7.268;2022-07-25T00:39:11;8.63;;;6.20;;
36555;SDS011;40859;50.560;7.268;2022-07-25T00:41:37;12.27;;;6.72;;
36555;SDS011;40859;50.560;7.268;2022-07-25T00:44:02;12.13;;;6.28;;
36555;SDS011;40859;50.560;7.268;2022-07-25T00:46:29;9.93;;;7.00;;
36555;SDS011;40859;50.560;7.268;2022-07-25T00:48:55;13.45;;;6.35;;
36555;SDS011;40859;50.560;7.268;2022-07-25T00:51:20;13.35;;;6.82;;
36555;SDS011;40859;50.560;7.268;2022-07-25T00:53:48;7.87;;;6.03;;
36555;SDS011;40859;50.560;7.268;2022-07-25T00:56:14;9.68;;;7.22;;
36555;SDS011;40859;50.560;7.268;2022-07-25T00:58:40;9.77;;;6.70;;
36555;SDS011;40859;50.560;7.268;2022-07-25T01:01:07;11.90;;;6.57;;
36555;SDS011;40859;50.560;7.268;2022-07-25T01:03:33;12.98;;;6.72;;
36555;SDS011;40859;50.560;7.268;2022-07-25T01:05:59;12.27;;;6.35;;
36555;SDS011;40859;50.560;7.268;2022-07-25T01:08:25;11.43;;;6.82;;
36555;SDS011;40859;50.560;7.268;2022-07-25T01:10:52;13.90;;;7.12;;
36555;SDS011;40859;50.560;7.268;2022-07-25T01:13:18;16.60;;;6.72;;
36555;SDS011;40859;50.560;7.268;2022-07-25T01:15:44;8.98;;;6.40;;
36555;SDS011;40859;50.560;7.268;2022-07-25T01:18:10;7.37;;;5.85;;
36555;SDS011;40859;50.560;7.268;2022-07-25T01:20:36;10.75;;;5.80;;
36555;SDS011;40859;50.560;7.268;2022-07-25T01:23:02;15.60;;;7.45;;
36555;SDS011;40859;50.560;7.268;2022-07-25T01:25:28;10.88;;;6.40;;
36555;SDS011;40859;50.560;7.268;2022-07-25T01:27:54;8.27;;;6.45;;
36555;SDS011;40859;50.560;7.268;2022-07-25T01:30:20;11.82;;;6.80;;
36555;SDS011;40859;50.560;7.268;2022-07-25T01:32:47;16.20;;;6.68;;
36555;SDS011;40859;50.560;7.268;2022-07-25T01:35:13;18.25;;;6.60;;
36555;SDS011;40859;50.560;7.268;2022-07-25T01:37:39;9.77;;;6.15;;
36555;SDS011;40859;50.560;7.268;2022-07-25T01:40:06;13.38;;;6.68;;
36555;SDS011;40859;50.560;7.268;2022-07-25T01:42:32;16.35;;;6.50;;
36555;SDS011;40859;50.560;7.268;2022-07-25T01:44:58;7.25;;;5.72;;
36555;SDS011;40859;50.560;7.268;2022-07-25T01:47:25;14.30;;;6.32;;
36555;SDS011;40859;50.560;7.268;2022-07-25T01:49:51;11.20;;;5.55;;
36555;SDS011;40859;50.560;7.268;2022-07-25T01:52:17;18.12;;;7.50;;
36555;SDS011;40859;50.560;7.268;2022-07-25T01:54:43;11.00;;;6.55;;
36555;SDS011;40859;50.560;7.268;2022-07-25T01:57:09;9.05;;;5.72;;
36555;SDS011;40859;50.560;7.268;2022-07-25T01:59:35;16.12;;;7.07;;
36555;SDS011;40859;50.560;7.268;2022-07-25T02:02:03;11.05;;;6.53;;
36555;SDS011;40859;50.560;7.268;2022-07-25T02:04:29;10.48;;;6.25;;
36555;SDS011;40859;50.560;7.268;2022-07-25T02:06:55;9.77;;;6.30;;
36555;SDS011;40859;50.560;7.268;2022-07-25T02:09:21;12.98;;;6.30;;
36555;SDS011;40859;50.560;7.268;2022-07-25T02:11:47;10.35;;;6.72;;
36555;SDS011;40859;50.560;7.268;2022-07-25T02:14:13;13.27;;;5.90;;
36555;SDS011;40859;50.560;7.268;2022-07-25T02:16:38;15.45;;;6.60;;
36555;SDS011;40859;50.560;7.268;2022-07-25T02:19:04;10.30;;;6.80;;
36555;SDS011;40859;50.560;7.268;2022-07-25T02:21:31;8.38;;;5.80;;
36555;SDS011;40859;50.560;7.268;2022-07-25T02:23:57;9.18;;;5.75;;
36555;SDS011;40859;50.560;7.268;2022-07-25T02:26:23;14.02;;;5.57;;
36555;SDS011;40859;50.560;7.268;2022-07-25T02:28:49;14.32;;;6.40;;
36555;SDS011;40859;50.560;7.268;2022-07-25T02:31:15;14.50;;;4.85;;
36555;SDS011;40859;50.560;7.268;2022-07-25T02:33:40;13.80;;;6.15;;
36555;SDS011;40859;50.560;7.268;2022-07-25T02:36:07;9.60;;;6.10;;
36555;SDS011;40859;50.560;7.268;2022-07-25T02:38:34;11.73;;;6.97;;
36555;SDS011;40859;50.560;7.268;2022-07-25T02:41:00;10.63;;;6.53;;
36555;SDS011;40859;50.560;7.268;2022-07-25T02:43:25;8.43;;;5.55;;
36555;SDS011;40859;50.560;7.268;2022-07-25T02:45:51;9.35;;;5.87;;
36555;SDS011;40859;50.560;7.268;2022-07-25T02:48:17;11.75;;;6.47;;
36555;SDS011;40859;50.560;7.268;2022-07-25T02:50:43;9.15;;;6.40;;
36555;SDS011;40859;50.560;7.268;2022-07-25T02:53:09;10.73;;;6.07;;
36555;SDS011;40859;50.560;7.268;2022-07-25T02:55:35;9.45;;;6.45;;
36555;SDS011;40859;50.560;7.268;2022-07-25T09:01:03;11.48;;;5.65;;
36555;SDS011;40859;50.560;7.268;2022-07-25T09:03:29;8.35;;;5.75;;
36555;SDS011;40859;50.560;7.268;2022-07-25T09:05:55;8.25;;;5.55;;
36555;SDS011;40859;50.560;7.268;2022-07-25T09:08:22;12.70;;;5.87;;
36555;SDS011;40859;50.560;7.268;2022-07-25T09:10:49;10.02;;;5.30;;
36555;SDS011;40859;50.560;7.268;2022-07-25T09:13:16;10.00;;;5.50;;
36555;SDS011;40859;50.560;7.268;2022-07-25T09:15:52;10.07;;;5.50;;
36555;SDS011;40859;50.560;7.268;2022-07-25T09:18:24;10.90;;;6.28;;
36555;SDS011;40859;50.560;7.268;2022-07-25T09:20:55;10.98;;;5.53;;
36555;SDS011;40859;50.560;7.268;2022-07-25T09:23:30;29.80;;;6.68;;
36555;SDS011;40859;50.560;7.268;2022-07-25T09:26:04;12.70;;;5.37;;
36555;SDS011;40859;50.560;7.268;2022-07-25T09:28:45;10.25;;;5.43;;
36555;SDS011;40859;50.560;7.268;2022-07-25T09:33:49;9.95;;;4.95;;
36555;SDS011;40859;50.560;7.268;2022-07-25T09:36:20;19.58;;;5.87;;
36555;SDS011;40859;50.560;7.268;2022-07-25T09:38:53;16.23;;;5.65;;
36555;SDS011;40859;50.560;7.268;2022-07-25T09:41:20;10.80;;;6.60;;
36555;SDS011;40859;50.560;7.268;2022-07-25T09:43:46;8.48;;;5.32;;
36555;SDS011;40859;50.560;7.268;2022-07-25T09:46:12;7.28;;;5.15;;
36555;SDS011;40859;50.560;7.268;2022-07-25T09:48:39;11.38;;;5.68;;
36555;SDS011;40859;50.560;7.268;2022-07-25T09:51:08;9.40;;;5.25;;
36555;SDS011;40859;50.560;7.268;2022-07-25T09:53:33;14.02;;;5.93;;
36555;SDS011;40859;50.560;7.268;2022-07-25T09:56:00;11.38;;;5.07;;
36555;SDS011;40859;50.560;7.268;2022-07-25T09:58:27;8.27;;;5.50;;
36555;SDS011;40859;50.560;7.268;2022-07-25T10:00:59;8.02;;;5.65;;
36555;SDS011;40859;50.560;7.268;2022-07-25T10:03:51;13.00;;;5.53;;
36555;SDS011;40859;50.560;7.268;2022-07-25T10:08:09;8.90;;;5.45;;
36555;SDS011;40859;50.560;7.268;2022-07-25T10:10:37;13.32;;;5.97;;
36555;SDS011;40859;50.560;7.268;2022-07-25T10:13:09;9.00;;;5.55;;
36555;SDS011;40859;50.560;7.268;2022-07-25T10:15:49;13.35;;;5.82;;
36555;SDS011;40859;50.560;7.268;2022-07-25T10:18:19;17.62;;;6.68;;
36555;SDS011;40859;50.560;7.268;2022-07-25T10:20:52;21.10;;;7.18;;
36555;SDS011;40859;50.560;7.268;2022-07-25T10:23:26;17.10;;;7.50;;
36555;SDS011;40859;50.560;7.268;2022-07-25T10:31:35;23.62;;;7.55;;
36555;SDS011;40859;50.560;7.268;2022-07-25T10:34:05;15.73;;;7.32;;
36555;SDS011;40859;50.560;7.268;2022-07-25T10:36:47;18.08;;;7.32;;
36555;SDS011;40859;50.560;7.268;2022-07-25T10:39:20;19.77;;;6.75;;
36555;SDS011;40859;50.560;7.268;2022-07-25T10:41:54;8.80;;;5.97;;
36555;SDS011;40859;50.560;7.268;2022-07-25T10:44:26;12.75;;;6.60;;
36555;SDS011;40859;50.560;7.268;2022-07-25T10:47:04;11.77;;;6.57;;
36555;SDS011;40859;50.560;7.268;2022-07-25T10:49:34;8.85;;;5.95;;
36555;SDS011;40859;50.560;7.268;2022-07-25T10:52:02;17.00;;;7.37;;
36555;SDS011;40859;50.560;7.268;2022-07-25T10:54:37;18.17;;;7.22;;
36555;SDS011;40859;50.560;7.268;2022-07-25T10:57:13;19.12;;;7.45;;
36555;SDS011;40859;50.560;7.268;2022-07-25T10:59:40;17.48;;;7.45;;
36555;SDS011;40859;50.560;7.268;2022-07-25T11:02:07;16.67;;;6.78;;
36555;SDS011;40859;50.560;7.268;2022-07-25T11:04:40;12.30;;;6.78;;
36555;SDS011;40859;50.560;7.268;2022-07-25T11:07:11;12.23;;;6.97;;
36555;SDS011;40859;50.560;7.268;2022-07-25T11:09:38;19.77;;;7.82;;
36555;SDS011;40859;50.560;7.268;2022-07-25T11:12:05;15.30;;;6.62;;
36555;SDS011;40859;50.560;7.268;2022-07-25T11:14:36;16.55;;;6.40;;
36555;SDS011;40859;50.560;7.268;2022-07-25T11:20:31;18.90;;;5.87;;
36555;SDS011;40859;50.560;7.268;2022-07-25T11:22:57;14.98;;;6.20;;
36555;SDS011;40859;50.560;7.268;2022-07-25T11:25:23;11.20;;;6.37;;
36555;SDS011;40859;50.560;7.268;2022-07-25T11:27:54;30.58;;;7.72;;
36555;SDS011;40859;50.560;7.268;2022-07-25T11:30:22;17.90;;;7.20;;
36555;SDS011;40859;50.560;7.268;2022-07-25T11:32:50;14.10;;;6.65;;
36555;SDS011;40859;50.560;7.268;2022-07-25T11:35:25;8.93;;;5.82;;
36555;SDS011;40859;50.560;7.268;2022-07-25T11:37:53;11.27;;;6.60;;
36555;SDS011;40859;50.560;7.268;2022-07-25T11:40:19;14.48;;;6.47;;
36555;SDS011;40859;50.560;7.268;2022-07-25T11:42:47;10.40;;;7.10;;
36555;SDS011;40859;50.560;7.268;2022-07-25T11:45:17;19.48;;;7.20;;
36555;SDS011;40859;50.560;7.268;2022-07-25T11:52:19;10.95;;;6.43;;
36555;SDS011;40859;50.560;7.268;2022-07-25T11:55:16;15.45;;;6.90;;
36555;SDS011;40859;50.560;7.268;2022-07-25T11:57:42;10.95;;;6.57;;
36555;SDS011;40859;50.560;7.268;2022-07-25T12:00:16;10.80;;;6.68;;
36555;SDS011;40859;50.560;7.268;2022-07-25T12:02:44;9.27;;;6.80;;
36555;SDS011;40859;50.560;7.268;2022-07-25T12:05:12;10.30;;;6.32;;
36555;SDS011;40859;50.560;7.268;2022-07-25T12:07:40;8.07;;;5.82;;
36555;SDS011;40859;50.560;7.268;2022-07-25T12:10:21;12.00;;;6.40;;
36555;SDS011;40859;50.560;7.268;2022-07-25T12:12:56;13.73;;;6.90;;
36555;SDS011;40859;50.560;7.268;2022-07-25T12:15:26;9.70;;;6.78;;
36555;SDS011;40859;50.560;7.268;2022-07-25T12:17:54;9.27;;;6.37;;
36555;SDS011;40859;50.560;7.268;2022-07-25T12:20:26;7.32;;;6.10;;
36555;SDS011;40859;50.560;7.268;2022-07-25T12:22:58;10.73;;;6.43;;
36555;SDS011;40859;50.560;7.268;2022-07-25T12:25:27;13.20;;;6.35;;
36555;SDS011;40859;50.560;7.268;2022-07-25T12:27:54;8.00;;;6.87;;
36555;SDS011;40859;50.560;7.268;2022-07-25T12:30:23;9.25;;;6.45;;
36555;SDS011;40859;50.560;7.268;2022-07-25T12:32:49;8.85;;;6.03;;
36555;SDS011;40859;50.560;7.268;2022-07-25T12:35:15;16.73;;;6.55;;
36555;SDS011;40859;50.560;7.268;2022-07-25T12:37:41;9.70;;;6.20;;
36555;SDS011;40859;50.560;7.268;2022-07-25T12:40:09;9.82;;;6.30;;
36555;SDS011;40859;50.560;7.268;2022-07-25T12:42:36;10.07;;;5.87;;
36555;SDS011;40859;50.560;7.268;2022-07-25T12:45:05;7.75;;;5.97;;
36555;SDS011;40859;50.560;7.268;2022-07-25T12:47:35;11.82;;;6.82;;
36555;SDS011;40859;50.560;7.268;2022-07-25T12:50:01;8.68;;;6.45;;
36555;SDS011;40859;50.560;7.268;2022-07-25T12:52:28;16.65;;;6.47;;
36555;SDS011;40859;50.560;7.268;2022-07-25T12:54:56;10.32;;;6.53;;
36555;SDS011;40859;50.560;7.268;2022-07-25T12:57:22;9.32;;;6.78;;
36555;SDS011;40859;50.560;7.268;2022-07-25T12:59:48;14.30;;;6.87;;
36555;SDS011;40859;50.560;7.268;2022-07-25T13:02:14;12.00;;;6.53;;
36555;SDS011;40859;50.560;7.268;2022-07-25T13:04:40;11.55;;;6.55;;
36555;SDS011;40859;50.560;7.268;2022-07-25T13:07:07;12.05;;;6.93;;
36555;SDS011;40859;50.560;7.268;2022-07-25T13:09:32;12.13;;;7.10;;
36555;SDS011;40859;50.560;7.268;2022-07-25T13:11:58;12.70;;;7.90;;
36555;SDS011;40859;50.560;7.268;2022-07-25T13:14:24;12.05;;;5.93;;
36555;SDS011;40859;50.560;7.268;2022-07-25T13:16:50;13.05;;;7.28;;
36555;SDS011;40859;50.560;7.268;2022-07-25T13:19:16;9.77;;;6.72;;
36555;SDS011;40859;50.560;7.268;2022-07-25T13:21:42;11.48;;;6.65;;
36555;SDS011;40859;50.560;7.268;2022-07-25T13:24:09;10.27;;;6.93;;
36555;SDS011;40859;50.560;7.268;2022-07-25T13:26:35;14.38;;;6.80;;
36555;SDS011;40859;50.560;7.268;2022-07-25T13:29:02;10.57;;;6.45;;
36555;SDS011;40859;50.560;7.268;2022-07-25T13:31:32;13.10;;;7.37;;
36555;SDS011;40859;50.560;7.268;2022-07-25T13:34:07;10.90;;;6.43;;
36555;SDS011;40859;50.560;7.268;2022-07-25T13:36:34;10.80;;;6.53;;
36555;SDS011;40859;50.560;7.268;2022-07-25T13:39:02;20.45;;;7.05;;
36555;SDS011;40859;50.560;7.268;2022-07-25T13:41:29;10.95;;;6.12;;
36555;SDS011;40859;50.560;7.268;2022-07-25T13:43:55;9.07;;;6.47;;
36555;SDS011;40859;50.560;7.268;2022-07-25T13:46:21;9.30;;;5.62;;
36555;SDS011;40859;50.560;7.268;2022-07-25T13:48:47;14.60;;;6.25;;
36555;SDS011;40859;50.560;7.268;2022-07-25T13:51:13;12.40;;;6.00;;
36555;SDS011;40859;50.560;7.268;2022-07-25T13:53:39;12.63;;;6.37;;
36555;SDS011;40859;50.560;7.268;2022-07-25T13:56:05;15.93;;;5.78;;
36555;SDS011;40859;50.560;7.268;2022-07-25T13:58:31;16.33;;;5.87;;
36555;SDS011;40859;50.560;7.268;2022-07-25T14:00:57;16.15;;;5.53;;
36555;SDS011;40859;50.560;7.268;2022-07-25T14:03:23;11.30;;;6.07;;
36555;SDS011;40859;50.560;7.268;2022-07-25T14:05:49;11.68;;;5.95;;
36555;SDS011;40859;50.560;7.268;2022-07-25T14:08:15;12.27;;;5.53;;
36555;SDS011;40859;50.560;7.268;2022-07-25T14:10:41;10.82;;;5.35;;
36555;SDS011;40859;50.560;7.268;2022-07-25T14:13:08;12.48;;;5.55;;
36555;SDS011;40859;50.560;7.268;2022-07-25T14:15:34;12.20;;;5.10;;
36555;SDS011;40859;50.560;7.268;2022-07-25T14:18:02;9.27;;;5.75;;
36555;SDS011;40859;50.560;7.268;2022-07-25T14:20:28;16.85;;;5.40;;
36555;SDS011;40859;50.560;7.268;2022-07-25T14:22:54;10.13;;;5.62;;
36555;SDS011;40859;50.560;7.268;2022-07-25T14:25:19;10.55;;;5.37;;
36555;SDS011;40859;50.560;7.268;2022-07-25T14:27:46;7.30;;;5.05;;
36555;SDS011;40859;50.560;7.268;2022-07-25T14:30:12;14.65;;;5.47;;
36555;SDS011;40859;50.560;7.268;2022-07-25T14:32:39;9.18;;;5.37;;
36555;SDS011;40859;50.560;7.268;2022-07-25T14:35:05;11.25;;;5.95;;
36555;SDS011;40859;50.560;7.268;2022-07-25T14:37:32;7.50;;;4.82;;
36555;SDS011;40859;50.560;7.268;2022-07-25T14:39:58;9.35;;;5.28;;
36555;SDS011;40859;50.560;7.268;2022-07-25T14:42:24;13.25;;;5.40;;
36555;SDS011;40859;50.560;7.268;2022-07-25T14:44:50;9.98;;;5.68;;
36555;SDS011;40859;50.560;7.268;2022-07-25T14:47:16;8.93;;;5.50;;
36555;SDS011;40859;50.560;7.268;2022-07-25T14:49:42;11.55;;;5.35;;
36555;SDS011;40859;50.560;7.268;2022-07-25T14:52:08;7.75;;;5.32;;
36555;SDS011;40859;50.560;7.268;2022-07-25T14:54:36;11.70;;;4.70;;
36555;SDS011;40859;50.560;7.268;2022-07-25T14:57:02;11.88;;;5.45;;
36555;SDS011;40859;50.560;7.268;2022-07-25T14:59:28;7.18;;;4.90;;
36555;SDS011;40859;50.560;7.268;2022-07-25T21:15:28;7.40;;;2.03;;
36555;SDS011;40859;50.560;7.268;2022-07-25T21:17:55;5.80;;;2.20;;
36555;SDS011;40859;50.560;7.268;2022-07-25T21:20:22;5.57;;;2.37;;
36555;SDS011;40859;50.560;7.268;2022-07-25T21:22:48;4.18;;;1.87;;
36555;SDS011;40859;50.560;7.268;2022-07-25T21:25:14;7.28;;;2.22;;
36555;SDS011;40859;50.560;7.268;2022-07-25T21:27:40;5.43;;;2.40;;
36555;SDS011;40859;50.560;7.268;2022-07-25T21:30:07;28.02;;;3.28;;
36555;SDS011;40859;50.560;7.268;2022-07-25T21:32:34;6.43;;;2.15;;
36555;SDS011;40859;50.560;7.268;2022-07-25T21:35:00;5.12;;;1.73;;
36555;SDS011;40859;50.560;7.268;2022-07-25T21:37:26;5.62;;;2.12;;
36555;SDS011;40859;50.560;7.268;2022-07-25T21:39:51;4.10;;;2.12;;
36555;SDS011;40859;50.560;7.268;2022-07-25T21:42:18;5.03;;;2.70;;
36555;SDS011;40859;50.560;7.268;2022-07-25T21:44:44;4.05;;;1.62;;
36555;SDS011;40859;50.560;7.268;2022-07-25T21:47:10;5.03;;;2.28;;
36555;SDS011;40859;50.560;7.268;2022-07-25T21:49:36;4.78;;;2.10;;
36555;SDS011;40859;50.560;7.268;2022-07-25T21:52:21;5.87;;;2.03;;
36555;SDS011;40859;50.560;7.268;2022-07-25T21:54:48;7.65;;;1.65;;
36555;SDS011;40859;50.560;7.268;2022-07-25T21:57:14;9.00;;;2.45;;
36555;SDS011;40859;50.560;7.268;2022-07-25T21:59:41;3.70;;;1.87;;
36555;SDS011;40859;50.560;7.268;2022-07-25T22:02:08;2.62;;;1.42;;
36555;SDS011;40859;50.560;7.268;2022-07-25T22:04:34;4.00;;;2.00;;
36555;SDS011;40859;50.560;7.268;2022-07-25T22:07:00;7.12;;;2.60;;
36555;SDS011;40859;50.560;7.268;2022-07-25T22:09:26;6.95;;;2.05;;
36555;SDS011;40859;50.560;7.268;2022-07-25T22:11:55;3.85;;;1.87;;
36555;SDS011;40859;50.560;7.268;2022-07-25T22:14:22;4.50;;;1.70;;
36555;SDS011;40859;50.560;7.268;2022-07-25T22:16:48;6.53;;;1.73;;
36555;SDS011;40859;50.560;7.268;2022-07-25T22:19:14;2.37;;;1.52;;
36555;SDS011;40859;50.560;7.268;2022-07-25T22:21:40;4.20;;;1.65;;
36555;SDS011;40859;50.560;7.268;2022-07-25T22:24:07;3.53;;;1.77;;
36555;SDS011;40859;50.560;7.268;2022-07-25T22:26:34;4.78;;;1.83;;
36555;SDS011;40859;50.560;7.268;2022-07-25T22:29:00;3.67;;;1.80;;
36555;SDS011;40859;50.560;7.268;2022-07-25T22:31:26;4.25;;;1.70;;
36555;SDS011;40859;50.560;7.268;2022-07-25T22:33:52;8.85;;;2.40;;
36555;SDS011;40859;50.560;7.268;2022-07-25T22:36:18;6.97;;;1.70;;
36555;SDS011;40859;50.560;7.268;2022-07-25T22:38:44;3.45;;;1.55;;
36555;SDS011;40859;50.560;7.268;2022-07-25T22:41:10;3.65;;;1.77;;
36555;SDS011;40859;50.560;7.268;2022-07-25T22:43:36;5.57;;;1.60;;
36555;SDS011;40859;50.560;7.268;2022-07-25T22:46:02;6.57;;;1.77;;
36555;SDS011;40859;50.560;7.268;2022-07-25T22:48:28;4.05;;;1.87;;
36555;SDS011;40859;50.560;7.268;2022-07-25T22:50:54;4.53;;;1.62;;
36555;SDS011;40859;50.560;7.268;2022-07-25T22:53:20;4.28;;;1.80;;
36555;SDS011;40859;50.560;7.268;2022-07-25T22:55:46;3.37;;;1.77;;
36555;SDS011;40859;50.560;7.268;2022-07-25T22:58:12;9.63;;;1.77;;
36555;SDS011;40859;50.560;7.268;2022-07-25T23:00:38;7.00;;;2.97;;
36555;SDS011;40859;50.560;7.268;2022-07-25T23:03:04;4.93;;;1.85;;
36555;SDS011;40859;50.560;7.268;2022-07-25T23:05:30;7.28;;;1.50;;
36555;SDS011;40859;50.560;7.268;2022-07-25T23:07:56;5.62;;;1.42;;
36555;SDS011;40859;50.560;7.268;2022-07-25T23:10:22;5.30;;;1.35;;
36555;SDS011;40859;50.560;7.268;2022-07-25T23:12:48;3.60;;;1.42;;
36555;SDS011;40859;50.560;7.268;2022-07-25T23:15:14;3.92;;;1.48;;
36555;SDS011;40859;50.560;7.268;2022-07-25T23:17:39;3.75;;;1.50;;
36555;SDS011;40859;50.560;7.268;2022-07-25T23:20:05;5.50;;;1.58;;
36555;SDS011;40859;50.560;7.268;2022-07-25T23:22:33;3.72;;;1.80;;
36555;SDS011;40859;50.560;7.268;2022-07-25T23:24:59;4.57;;;1.87;;
36555;SDS011;40859;50.560;7.268;2022-07-25T23:27:25;1.75;;;1.30;;
36555;SDS011;40859;50.560;7.268;2022-07-25T23:29:51;3.67;;;1.50;;
36555;SDS011;40859;50.560;7.268;2022-07-25T23:32:17;5.22;;;1.50;;
36555;SDS011;40859;50.560;7.268;2022-07-25T23:34:43;3.67;;;1.73;;
36555;SDS011;40859;50.560;7.268;2022-07-25T23:37:09;2.08;;;1.12;;
36555;SDS011;40859;50.560;7.268;2022-07-25T23:39:35;5.50;;;2.05;;
36555;SDS011;40859;50.560;7.268;2022-07-25T23:42:02;2.97;;;2.05;;
36555;SDS011;40859;50.560;7.268;2022-07-25T23:44:28;1.65;;;1.10;;
36555;SDS011;40859;50.560;7.268;2022-07-25T23:46:54;3.15;;;2.25;;
36555;SDS011;40859;50.560;7.268;2022-07-25T23:49:22;5.87;;;1.90;;
36555;SDS011;40859;50.560;7.268;2022-07-25T23:51:48;2.97;;;1.60;;
36555;SDS011;40859;50.560;7.268;2022-07-25T23:54:14;3.08;;;1.08;;
36555;SDS011;40859;50.560;7.268;2022-07-25T23:56:40;2.65;;;1.40;;
36555;SDS011;40859;50.560;7.268;2022-07-25T23:59:06;5.78;;;1.40;;
